createdAt,value
2018-07-06T00:02:28.418Z,101258.12
2018-07-06T00:05:08.775Z,101254.94
2018-07-06T00:07:49.031Z,101253.84
2018-07-06T00:10:29.508Z,101253.73
2018-07-06T00:13:09.785Z,101256.30
2018-07-06T00:15:50.054Z,101258.20
2018-07-06T00:18:30.362Z,101263.89
2018-07-06T00:21:10.468Z,101264.99
2018-07-06T00:23:50.693Z,101259.01
2018-07-06T00:26:31.038Z,101258.06
2018-07-06T00:29:11.322Z,101268.03
2018-07-06T00:31:51.600Z,101277.48
2018-07-06T00:34:31.872Z,101284.17
2018-07-06T00:37:21.558Z,101281.41
2018-07-06T00:40:04.630Z,101281.59
2018-07-06T00:42:44.953Z,101289.91
2018-07-06T00:45:25.372Z,101288.34
2018-07-06T00:48:05.623Z,101285.14
2018-07-06T00:50:45.963Z,101284.27
2018-07-06T00:53:26.240Z,101287.64
2018-07-06T00:56:06.719Z,101283.25
2018-07-06T00:58:47.100Z,101287.28
2018-07-06T01:01:27.217Z,101289.55
2018-07-06T01:04:07.692Z,101287.71
2018-07-06T01:06:47.921Z,101285.45
2018-07-06T01:09:28.151Z,101287.25
2018-07-06T01:12:13.849Z,101286.30
2018-07-06T01:14:54.275Z,101287.66
2018-07-06T01:17:34.599Z,101288.52
2018-07-06T01:20:14.910Z,101297.72
2018-07-06T01:22:55.242Z,101294.57
2018-07-06T01:25:35.388Z,101299.83
2018-07-06T01:28:16.891Z,101304.63
2018-07-06T01:30:57.276Z,101304.77
2018-07-06T01:33:37.495Z,101309.55
2018-07-06T01:36:17.810Z,101311.67
2018-07-06T01:38:58.059Z,101308.85
2018-07-06T01:41:38.417Z,101306.66
2018-07-06T01:44:18.841Z,101311.53
2018-07-06T01:46:59.029Z,101316.59
2018-07-06T01:49:39.332Z,101318.11
2018-07-06T01:52:19.529Z,101323.45
2018-07-06T01:54:59.832Z,101327.44
2018-07-06T01:57:40.156Z,101322.30
2018-07-06T02:00:20.464Z,101320.11
2018-07-06T02:03:00.749Z,101327.26
2018-07-06T02:05:40.920Z,101322.13
2018-07-06T02:08:21.312Z,101321.23
2018-07-06T02:11:01.619Z,101323.91
2018-07-06T02:13:41.912Z,101325.45
2018-07-06T02:16:22.324Z,101324.19
2018-07-06T02:19:02.555Z,101322.31
2018-07-06T02:21:42.746Z,101322.67
2018-07-06T02:24:23.044Z,101321.34
2018-07-06T02:27:03.462Z,101324.98
2018-07-06T02:29:43.692Z,101333.03
2018-07-06T02:32:24.079Z,101337.66
2018-07-06T02:35:04.413Z,101336.69
2018-07-06T02:37:44.746Z,101331.38
2018-07-06T02:40:24.858Z,101334.66
2018-07-06T02:43:05.320Z,101338.80
2018-07-06T02:45:45.849Z,101335.45
2018-07-06T02:48:26.305Z,101336.64
2018-07-06T02:51:06.571Z,101338.80
2018-07-06T02:53:47.054Z,101341.67
2018-07-06T02:56:27.395Z,101349.33
2018-07-06T02:59:07.689Z,101349.04
2018-07-06T03:01:48.120Z,101348.46
2018-07-06T03:04:28.496Z,101349.86
2018-07-06T03:07:08.848Z,101351.87
2018-07-06T03:09:49.221Z,101356.77
2018-07-06T03:12:29.433Z,101353.16
2018-07-06T03:15:09.742Z,101356.19
2018-07-06T03:17:49.926Z,101353.05
2018-07-06T03:20:30.297Z,101356.61
2018-07-06T03:23:10.418Z,101351.63
2018-07-06T03:25:50.800Z,101346.03
2018-07-06T03:28:31.314Z,101354.30
2018-07-06T03:31:11.480Z,101349.74
2018-07-06T03:33:51.809Z,101358.98
2018-07-06T03:36:32.125Z,101355.95
2018-07-06T03:39:12.447Z,101355.73
2018-07-06T03:41:52.609Z,101363.95
2018-07-06T03:44:32.856Z,101363.49
2018-07-06T03:47:13.053Z,101364.32
2018-07-06T03:49:53.298Z,101369.30
2018-07-06T03:52:33.525Z,101375.77
2018-07-06T03:55:13.917Z,101378.80
2018-07-06T03:57:54.200Z,101382.70
2018-07-06T04:00:34.530Z,101380.53
2018-07-06T04:03:14.993Z,101390.81
2018-07-06T04:05:55.321Z,101395.02
2018-07-06T04:08:35.667Z,101390.02
2018-07-06T04:11:16.119Z,101395.67
2018-07-06T04:13:56.807Z,101397.48
2018-07-06T04:16:36.995Z,101402.04
2018-07-06T04:19:17.340Z,101414.27
2018-07-06T04:21:57.634Z,101417.05
2018-07-06T04:24:37.792Z,101416.02
2018-07-06T04:27:17.920Z,101413.92
2018-07-06T04:29:58.185Z,101426.70
2018-07-06T04:32:38.361Z,101424.81
2018-07-06T04:35:18.735Z,101427.38
2018-07-06T04:37:58.989Z,101432.34
2018-07-06T04:40:39.368Z,101441.59
2018-07-06T04:43:19.577Z,101436.52
2018-07-06T04:45:59.924Z,101440.61
2018-07-06T04:48:40.301Z,101446.02
2018-07-06T04:51:20.701Z,101449.71
2018-07-06T04:54:00.951Z,101456.17
2018-07-06T04:56:41.174Z,101454.37
2018-07-06T04:59:21.534Z,101460.55
2018-07-06T05:02:01.939Z,101462.66
2018-07-06T05:04:42.255Z,101466.19
2018-07-06T05:07:22.510Z,101459.45
2018-07-06T05:10:02.902Z,101467.98
2018-07-06T05:12:43.297Z,101468.91
2018-07-06T05:15:23.612Z,101472.36
2018-07-06T05:18:04.072Z,101471.13
2018-07-06T05:20:44.291Z,101473.69
2018-07-06T05:23:24.672Z,101482.10
2018-07-06T05:26:04.915Z,101482.06
2018-07-06T05:28:45.233Z,101481.23
2018-07-06T05:31:25.522Z,101478.92
2018-07-06T05:34:05.982Z,101484.11
2018-07-06T05:36:46.139Z,101485.20
2018-07-06T05:39:26.333Z,101486.11
2018-07-06T05:42:06.653Z,101483.47
2018-07-06T05:44:47.142Z,101487.45
2018-07-06T05:47:27.429Z,101486.16
2018-07-06T05:50:07.864Z,101499.89
2018-07-06T05:52:48.043Z,101494.08
2018-07-06T05:55:28.351Z,101507.34
2018-07-06T05:58:09.042Z,101498.84
2018-07-06T06:00:49.447Z,101510.22
2018-07-06T06:03:29.808Z,101510.30
2018-07-06T06:06:10.421Z,101512.20
2018-07-06T06:08:38.330Z,101520.99
2018-07-06T06:11:07.419Z,101523.50
2018-07-06T06:13:36.544Z,101526.36
2018-07-06T06:16:05.672Z,101533.47
2018-07-06T06:18:34.866Z,101528.23
2018-07-06T06:21:03.980Z,101528.23
2018-07-06T06:23:33.888Z,101535.44
2018-07-06T06:26:03.007Z,101533.84
2018-07-06T06:28:32.103Z,101533.30
2018-07-06T06:31:01.227Z,101535.98
2018-07-06T06:33:30.493Z,101533.73
2018-07-06T06:35:59.521Z,101543.57
2018-07-06T06:38:28.677Z,101544.88
2018-07-06T06:40:57.833Z,101548.56
2018-07-06T06:43:26.962Z,101547.91
2018-07-06T06:45:56.107Z,101548.47
2018-07-06T06:48:25.226Z,101547.89
2018-07-06T06:50:54.349Z,101558.05
2018-07-06T06:53:23.494Z,101560.62
2018-07-06T06:55:52.586Z,101559.61
2018-07-06T06:58:26.554Z,101561.20
2018-07-06T07:00:57.166Z,101565.22
2018-07-06T07:03:26.347Z,101561.65
2018-07-06T07:05:55.467Z,101561.51
2018-07-06T07:08:24.576Z,101564.34
2018-07-06T07:10:53.794Z,101571.83
2018-07-06T07:13:29.839Z,101571.72
2018-07-06T07:15:59.089Z,101574.81
2018-07-06T07:18:28.636Z,101579.56
2018-07-06T07:20:57.811Z,101576.91
2018-07-06T07:23:26.936Z,101578.14
2018-07-06T07:25:56.075Z,101574.03
2018-07-06T07:28:25.133Z,101581.16
2018-07-06T07:30:54.258Z,101584.30
2018-07-06T07:33:23.391Z,101587.77
2018-07-06T07:35:52.598Z,101591.98
2018-07-06T07:38:21.723Z,101592.52
2018-07-06T07:40:50.863Z,101587.81
2018-07-06T07:43:20.068Z,101586.23
2018-07-06T07:45:53.619Z,101585.72
2018-07-06T07:48:22.694Z,101584.58
2018-07-06T07:51:03.223Z,101586.91
2018-07-06T07:53:43.445Z,101586.13
2018-07-06T07:56:12.564Z,101591.70
2018-07-06T07:58:41.678Z,101592.36
2018-07-06T08:01:10.861Z,101592.48
2018-07-06T08:03:40.094Z,101587.48
2018-07-06T08:06:09.189Z,101591.08
2018-07-06T08:08:38.333Z,101591.73
2018-07-06T08:11:07.395Z,101596.80
2018-07-06T08:13:36.547Z,101599.37
2018-07-06T08:16:05.630Z,101606.42
2018-07-06T08:18:34.745Z,101607.40
2018-07-06T08:21:03.932Z,101602.23
2018-07-06T08:23:33.034Z,101606.55
2018-07-06T08:26:02.228Z,101608.34
2018-07-06T08:28:31.318Z,101615.61
2018-07-06T08:31:00.389Z,101615.48
2018-07-06T08:33:32.403Z,101615.09
2018-07-06T08:36:15.670Z,101619.95
2018-07-06T08:38:44.764Z,101626.51
2018-07-06T08:41:13.878Z,101631.91
2018-07-06T08:43:42.991Z,101632.94
2018-07-06T08:46:12.090Z,101630.41
2018-07-06T08:48:41.222Z,101631.36
2018-07-06T08:51:10.347Z,101626.45
2018-07-06T08:53:39.469Z,101634.51
2018-07-06T08:56:08.583Z,101630.64
2018-07-06T08:58:37.681Z,101623.65
2018-07-06T09:01:06.784Z,101633.55
2018-07-06T09:03:36.232Z,101632.72
2018-07-06T09:06:05.692Z,101628.56
2018-07-06T09:08:34.735Z,101629.64
2018-07-06T09:11:03.829Z,101634.89
2018-07-06T09:13:32.916Z,101627.41
2018-07-06T09:16:02.001Z,101630.30
2018-07-06T09:18:31.111Z,101637.02
2018-07-06T09:21:00.208Z,101638.30
2018-07-06T09:23:29.296Z,101638.41
2018-07-06T09:25:58.676Z,101642.95
2018-07-06T09:28:27.598Z,101637.02
2018-07-06T09:30:56.692Z,101639.59
2018-07-06T09:33:25.777Z,101642.52
2018-07-06T09:35:54.937Z,101641.28
2018-07-06T09:38:23.990Z,101632.76
2018-07-06T09:40:53.109Z,101643.96
2018-07-06T09:43:22.187Z,101634.89
2018-07-06T09:45:52.036Z,101638.18
2018-07-06T09:48:21.091Z,101639.52
2018-07-06T09:50:50.229Z,101627.95
2018-07-06T09:53:19.317Z,101631.88
2018-07-06T09:55:48.436Z,101632.57
2018-07-06T09:58:17.552Z,101637.11
2018-07-06T10:00:52.034Z,101634.33
2018-07-06T10:03:21.095Z,101637.52
2018-07-06T10:05:50.298Z,101625.29
2018-07-06T10:08:19.381Z,101637.02
2018-07-06T10:10:48.473Z,101635.69
2018-07-06T10:13:17.878Z,101630.94
2018-07-06T10:15:46.986Z,101633.97
2018-07-06T10:18:16.066Z,101632.51
2018-07-06T10:20:45.189Z,101627.14
2018-07-06T10:23:14.374Z,101630.05
2018-07-06T10:25:43.466Z,101629.72
2018-07-06T10:28:23.047Z,101633.66
2018-07-06T10:31:31.668Z,101636.46
2018-07-06T10:34:00.892Z,101625.45
2018-07-06T10:36:29.968Z,101633.53
2018-07-06T10:38:59.063Z,101641.58
2018-07-06T10:41:28.540Z,101636.06
2018-07-06T10:43:57.625Z,101649.36
2018-07-06T10:46:26.688Z,101644.50
2018-07-06T10:48:55.788Z,101638.73
2018-07-06T10:51:24.909Z,101644.95
2018-07-06T10:53:54.005Z,101638.50
2018-07-06T10:56:23.095Z,101640.91
2018-07-06T10:58:52.268Z,101653.48
2018-07-06T11:01:21.352Z,101641.98
2018-07-06T11:03:50.444Z,101639.39
2018-07-06T11:06:19.547Z,101637.78
2018-07-06T11:08:48.736Z,101635.80
2018-07-06T11:11:18.079Z,101630.89
2018-07-06T11:13:47.173Z,101633.66
2018-07-06T11:16:16.306Z,101639.12
2018-07-06T11:18:45.360Z,101634.02
2018-07-06T11:21:14.548Z,101637.20
2018-07-06T11:23:43.706Z,101631.44
2018-07-06T11:26:12.815Z,101638.66
2018-07-06T11:28:41.949Z,101638.80
2018-07-06T11:31:11.014Z,101636.42
2018-07-06T11:33:40.082Z,101624.83
2018-07-06T11:36:09.162Z,101627.67
2018-07-06T11:38:38.331Z,101625.53
2018-07-06T11:41:10.353Z,101630.07
2018-07-06T11:43:39.430Z,101622.39
2018-07-06T11:46:08.583Z,101626.19
2018-07-06T11:48:37.688Z,101626.56
2018-07-06T11:51:06.795Z,101629.19
2018-07-06T11:53:35.898Z,101619.56
2018-07-06T11:56:05.021Z,101627.56
2018-07-06T11:58:34.269Z,101622.89
2018-07-06T12:01:03.337Z,101621.20
2018-07-06T12:03:32.435Z,101625.36
2018-07-06T12:06:01.541Z,101624.18
2018-07-06T12:08:30.643Z,101619.45
2018-07-06T12:10:59.732Z,101623.78
2018-07-06T12:13:28.798Z,101632.91
2018-07-06T12:15:57.884Z,101629.02
2018-07-06T12:18:26.994Z,101628.69
2018-07-06T12:20:56.120Z,101620.13
2018-07-06T12:23:25.174Z,101622.52
2018-07-06T12:25:54.522Z,101617.66
2018-07-06T12:28:23.597Z,101624.69
2018-07-06T12:30:53.658Z,101619.88
2018-07-06T12:33:22.732Z,101620.47
2018-07-06T12:35:51.839Z,101619.24
2018-07-06T12:38:20.886Z,101621.28
2018-07-06T12:40:49.971Z,101617.98
2018-07-06T12:43:19.109Z,101613.02
2018-07-06T12:45:48.173Z,101619.52
2018-07-06T12:48:17.298Z,101617.31
2018-07-06T12:50:46.535Z,101617.64
2018-07-06T12:53:15.693Z,101613.59
2018-07-06T12:55:44.775Z,101610.84
2018-07-06T12:58:13.921Z,101606.55
2018-07-06T13:00:42.984Z,101613.88
2018-07-06T13:03:12.092Z,101614.19
2018-07-06T13:05:41.252Z,101611.48
2018-07-06T13:08:10.357Z,101610.77
2018-07-06T13:10:39.456Z,101604.94
2018-07-06T13:13:08.712Z,101609.76
2018-07-06T13:15:37.793Z,101607.03
2018-07-06T13:18:06.864Z,101611.67
2018-07-06T13:20:35.976Z,101602.63
2018-07-06T13:23:05.061Z,101610.94
2018-07-06T13:25:34.112Z,101604.90
2018-07-06T13:28:03.201Z,101606.11
2018-07-06T13:30:32.275Z,101607.88
2018-07-06T13:33:01.451Z,101609.03
2018-07-06T13:35:30.500Z,101608.41
2018-07-06T13:37:59.630Z,101603.36
2018-07-06T13:40:28.743Z,101603.69
2018-07-06T13:42:57.853Z,101612.36
2018-07-06T13:45:26.903Z,101608.91
2018-07-06T13:47:55.983Z,101608.27
2018-07-06T13:50:25.072Z,101614.86
2018-07-06T13:52:54.204Z,101612.20
2018-07-06T13:55:23.309Z,101606.09
2018-07-06T13:57:52.399Z,101617.66
2018-07-06T14:00:21.542Z,101616.79
2018-07-06T14:02:50.594Z,101617.56
2018-07-06T14:05:19.856Z,101617.73
2018-07-06T14:07:48.939Z,101616.97
2018-07-06T14:10:17.993Z,101612.86
2018-07-06T14:12:47.101Z,101615.16
2018-07-06T14:15:16.209Z,101622.55
2018-07-06T14:17:45.296Z,101627.31
2018-07-06T14:20:14.426Z,101624.56
2018-07-06T14:22:43.597Z,101624.06
2018-07-06T14:25:12.652Z,101621.05
2018-07-06T14:27:41.739Z,101616.06
2018-07-06T14:30:10.861Z,101615.20
2018-07-06T14:32:39.939Z,101618.59
2018-07-06T14:35:09.044Z,101618.89
2018-07-06T14:37:38.182Z,101617.62
2018-07-06T14:40:07.450Z,101618.55
2018-07-06T14:42:42.928Z,101621.73
2018-07-06T14:45:12.048Z,101614.19
2018-07-06T14:47:41.155Z,101608.42
2018-07-06T14:50:10.237Z,101617.30
2018-07-06T14:52:39.385Z,101614.69
2018-07-06T14:55:15.424Z,101612.70
2018-07-06T14:57:44.499Z,101617.80
2018-07-06T15:00:13.581Z,101619.97
2018-07-06T15:02:42.706Z,101616.55
2018-07-06T15:05:11.814Z,101603.64
2018-07-06T15:07:40.944Z,101612.36
2018-07-06T15:10:10.421Z,101615.46
2018-07-06T15:12:39.498Z,101605.13
2018-07-06T15:15:08.614Z,101610.56
2018-07-06T15:17:38.009Z,101616.44
2018-07-06T15:20:07.387Z,101621.92
2018-07-06T15:22:36.467Z,101618.82
2018-07-06T15:25:05.559Z,101619.21
2018-07-06T15:27:34.693Z,101620.77
2018-07-06T15:30:04.097Z,101616.87
2018-07-06T15:32:33.213Z,101617.24
2018-07-06T15:35:02.348Z,101623.00
2018-07-06T15:37:31.405Z,101616.22
2018-07-06T15:40:00.546Z,101623.48
2018-07-06T15:42:29.668Z,101618.91
2018-07-06T15:44:58.730Z,101623.89
2018-07-06T15:47:27.875Z,101619.91
2018-07-06T15:49:56.969Z,101613.61
2018-07-06T15:52:26.107Z,101619.04
2018-07-06T15:54:55.182Z,101616.36
2018-07-06T15:57:24.298Z,101619.02
2018-07-06T15:59:53.386Z,101623.70
2018-07-06T16:02:22.497Z,101617.07
2018-07-06T16:04:51.577Z,101620.19
2018-07-06T16:07:20.676Z,101623.95
2018-07-06T16:09:49.740Z,101628.30
2018-07-06T16:12:18.832Z,101619.35
2018-07-06T16:14:47.965Z,101618.86
2018-07-06T16:17:17.069Z,101613.54
2018-07-06T16:19:46.199Z,101619.24
2018-07-06T16:22:15.312Z,101613.76
2018-07-06T16:24:44.408Z,101617.64
2018-07-06T16:27:13.455Z,101618.12
2018-07-06T16:29:42.562Z,101620.50
2018-07-06T16:32:11.684Z,101616.13
2018-07-06T16:34:40.763Z,101614.48
2018-07-06T16:37:09.921Z,101622.67
2018-07-06T16:39:39.035Z,101615.83
2018-07-06T16:42:08.062Z,101615.02
2018-07-06T16:44:37.158Z,101621.47
2018-07-06T16:47:06.218Z,101615.40
2018-07-06T16:49:35.271Z,101619.08
2018-07-06T16:52:04.367Z,101610.86
2018-07-06T16:54:33.433Z,101613.23
2018-07-06T16:57:02.524Z,101610.47
2018-07-06T16:59:31.567Z,101613.16
2018-07-06T17:02:00.655Z,101613.17
2018-07-06T17:04:29.702Z,101622.72
2018-07-06T17:09:20.988Z,101613.33
2018-07-06T17:11:50.109Z,101624.45
2018-07-06T17:14:19.177Z,101621.19
2018-07-06T17:16:48.271Z,101624.54
2018-07-06T17:19:17.989Z,101616.53
2018-07-06T17:21:47.061Z,101620.39
2018-07-06T17:24:16.128Z,101618.79
2018-07-06T17:26:45.186Z,101629.25
2018-07-06T17:29:14.268Z,101625.77
2018-07-06T17:31:43.385Z,101625.75
2018-07-06T17:34:12.453Z,101615.15
2018-07-06T17:36:41.565Z,101620.47
2018-07-06T17:39:10.735Z,101622.80
2018-07-06T17:41:39.863Z,101613.33
2018-07-06T17:44:08.938Z,101622.01
2018-07-06T17:46:38.057Z,101619.27
2018-07-06T17:49:07.138Z,101617.77
2018-07-06T17:51:36.231Z,101619.72
2018-07-06T17:54:05.409Z,101618.09
2018-07-06T17:56:34.491Z,101621.33
2018-07-06T17:59:03.611Z,101615.20
2018-07-06T18:01:32.691Z,101613.14
2018-07-06T18:04:01.775Z,101613.25
2018-07-06T18:06:30.847Z,101611.45
2018-07-06T18:08:59.958Z,101614.70
2018-07-06T18:11:29.037Z,101614.99
2018-07-06T18:13:58.160Z,101608.34
2018-07-06T18:16:27.268Z,101612.55
2018-07-06T18:18:56.412Z,101617.91
2018-07-06T18:21:25.570Z,101619.79
2018-07-06T18:23:54.647Z,101618.78
2018-07-06T18:26:23.712Z,101614.98
2018-07-06T18:28:53.191Z,101611.95
2018-07-06T18:31:22.270Z,101610.55
2018-07-06T18:33:51.365Z,101610.63
2018-07-06T18:36:20.564Z,101613.04
2018-07-06T18:38:49.670Z,101610.19
2018-07-06T18:41:18.810Z,101613.04
2018-07-06T18:43:47.856Z,101614.98
2018-07-06T18:46:16.957Z,101616.67
2018-07-06T18:48:46.056Z,101607.84
2018-07-06T18:51:15.273Z,101604.98
2018-07-06T18:53:44.368Z,101606.70
2018-07-06T18:56:13.494Z,101610.83
2018-07-06T18:58:42.574Z,101604.88
2018-07-06T19:01:11.674Z,101611.27
2018-07-06T19:03:40.791Z,101611.36
2018-07-06T19:06:09.898Z,101619.75
2018-07-06T19:08:38.956Z,101608.86
2018-07-06T19:11:08.042Z,101616.91
2018-07-06T19:13:37.103Z,101619.33
2018-07-06T19:16:06.205Z,101624.44
2018-07-06T19:18:35.343Z,101624.16
2018-07-06T19:21:04.532Z,101629.92
2018-07-06T19:23:33.620Z,101634.12
2018-07-06T19:26:02.733Z,101634.61
2018-07-06T19:28:31.813Z,101634.61
2018-07-06T19:31:00.986Z,101637.25
2018-07-06T19:33:30.048Z,101639.08
2018-07-06T19:35:59.141Z,101649.97
2018-07-06T19:38:28.243Z,101650.41
2018-07-06T19:40:57.312Z,101647.66
2018-07-06T19:43:26.436Z,101647.56
2018-07-06T19:45:55.541Z,101653.10
2018-07-06T19:48:24.658Z,101663.45
2018-07-06T19:50:53.792Z,101665.71
2018-07-06T19:53:23.016Z,101669.70
2018-07-06T19:55:52.104Z,101673.39
2018-07-06T19:58:21.358Z,101682.56
2018-07-06T20:00:50.488Z,101681.11
2018-07-06T20:03:19.649Z,101684.09
2018-07-06T20:05:48.796Z,101681.05
2018-07-06T20:08:17.893Z,101691.22
2018-07-06T20:10:47.025Z,101692.84
2018-07-06T20:13:16.163Z,101692.39
2018-07-06T20:15:45.219Z,101699.41
2018-07-06T20:18:14.300Z,101705.36
2018-07-06T20:20:43.702Z,101704.80
2018-07-06T20:23:12.811Z,101706.08
2018-07-06T20:25:41.910Z,101712.61
2018-07-06T20:28:11.131Z,101708.86
2018-07-06T20:30:42.518Z,101709.13
2018-07-06T20:33:11.583Z,101711.20
2018-07-06T20:35:40.706Z,101710.53
2018-07-06T20:38:09.796Z,101712.55
2018-07-06T20:40:38.918Z,101715.00
2018-07-06T20:43:08.042Z,101713.44
2018-07-06T20:45:37.211Z,101719.58
2018-07-06T20:48:06.380Z,101717.53
2018-07-06T20:50:35.524Z,101711.33
2018-07-06T20:53:04.850Z,101717.95
2018-07-06T20:55:33.967Z,101713.83
2018-07-06T20:58:03.088Z,101712.09
2018-07-06T21:00:32.174Z,101712.73
2018-07-06T21:03:01.310Z,101713.36
2018-07-06T21:05:30.417Z,101719.36
2018-07-06T21:07:59.548Z,101720.70
2018-07-06T21:10:28.633Z,101719.97
2018-07-06T21:12:57.738Z,101720.97
2018-07-06T21:15:26.852Z,101726.22
2018-07-06T21:17:55.948Z,101728.23
2018-07-06T21:20:25.282Z,101728.37
2018-07-06T21:22:54.341Z,101726.67
2018-07-06T21:25:23.493Z,101731.55
2018-07-06T21:27:52.584Z,101733.80
2018-07-06T21:30:21.699Z,101737.98
2018-07-06T21:32:50.801Z,101738.84
2018-07-06T21:35:19.961Z,101735.80
2018-07-06T21:37:49.050Z,101735.80
2018-07-06T21:40:18.176Z,101737.53
2018-07-06T21:42:47.274Z,101743.44
2018-07-06T21:45:16.363Z,101746.38
2018-07-06T21:47:45.429Z,101746.03
2018-07-06T21:50:14.539Z,101747.63
2018-07-06T21:52:43.589Z,101749.81
2018-07-06T21:55:12.727Z,101747.75
2018-07-06T21:57:41.851Z,101751.81
2018-07-06T22:00:10.955Z,101750.59
2018-07-06T22:02:40.062Z,101754.50
2018-07-06T22:05:09.261Z,101749.75
2018-07-06T22:07:38.422Z,101750.86
2018-07-06T22:10:07.479Z,101754.02
2018-07-06T22:12:36.557Z,101757.56
2018-07-06T22:15:05.642Z,101753.03
2018-07-06T22:17:34.879Z,101748.89
2018-07-06T22:20:03.980Z,101749.84
2018-07-06T22:22:33.075Z,101753.03
2018-07-06T22:25:02.176Z,101754.27
2018-07-06T22:27:31.224Z,101748.03
2018-07-06T22:30:00.287Z,101754.52
2018-07-06T22:32:29.450Z,101750.59
2018-07-06T22:34:58.483Z,101758.16
2018-07-06T22:37:27.570Z,101760.97
2018-07-06T22:39:56.632Z,101753.27
2018-07-06T22:42:25.791Z,101762.20
2018-07-06T22:44:54.911Z,101763.78
2018-07-06T22:47:24.000Z,101763.03
2018-07-06T22:49:53.099Z,101759.13
2018-07-06T22:52:22.214Z,101762.05
2018-07-06T22:54:51.269Z,101758.51
2018-07-06T22:57:20.428Z,101757.11
2018-07-06T22:59:49.503Z,101752.96
2018-07-06T23:02:18.613Z,101756.00
2018-07-06T23:04:47.694Z,101757.23
2018-07-06T23:07:16.756Z,101762.21
2018-07-06T23:09:45.868Z,101756.48
2018-07-06T23:12:14.978Z,101758.93
2018-07-06T23:14:44.097Z,101762.69
2018-07-06T23:17:13.144Z,101761.97
2018-07-06T23:19:42.237Z,101759.61
2018-07-06T23:22:11.333Z,101760.95
2018-07-06T23:24:40.388Z,101760.36
2018-07-06T23:27:09.648Z,101757.64
2018-07-06T23:29:38.690Z,101760.31
2018-07-06T23:32:07.829Z,101762.73
2018-07-06T23:34:36.900Z,101764.94
2018-07-06T23:37:06.000Z,101760.27
2018-07-06T23:39:35.083Z,101765.00
2018-07-06T23:42:04.251Z,101766.22
2018-07-06T23:44:33.380Z,101770.73
2018-07-06T23:47:02.441Z,101756.66
2018-07-06T23:49:31.549Z,101765.53
2018-07-06T23:52:00.626Z,101755.92
2018-07-06T23:54:29.779Z,101767.77
2018-07-06T23:56:58.820Z,101770.82
2018-07-06T23:59:28.035Z,101774.60
